sensor_id;sensor_type;location;lat;lon;timestamp;temperature;humidity
5276;DHT22;2661;50.786;12.728;2024-03-08T00:01:05;1.30;99.90
5276;DHT22;2661;50.786;12.728;2024-03-08T00:03:36;1.30;99.90
5276;DHT22;2661;50.786;12.728;2024-03-08T00:06:02;1.30;99.90
5276;DHT22;2661;50.786;12.728;2024-03-08T00:08:31;1.30;99.90
5276;DHT22;2661;50.786;12.728;2024-03-08T00:10:57;1.30;99.90
5276;DHT22;2661;50.786;12.728;2024-03-08T00:13:24;1.30;99.90
5276;DHT22;2661;50.786;12.728;2024-03-08T00:15:51;1.30;99.90
5276;DHT22;2661;50.786;12.728;2024-03-08T00:18:18;1.30;99.90
5276;DHT22;2661;50.786;12.728;2024-03-08T00:20:45;1.30;99.90
5276;DHT22;2661;50.786;12.728;2024-03-08T00:23:11;1.30;99.90
5276;DHT22;2661;50.786;12.728;2024-03-08T00:25:38;1.30;99.90
5276;DHT22;2661;50.786;12.728;2024-03-08T00:28:05;1.30;99.90
5276;DHT22;2661;50.786;12.728;2024-03-08T00:30:32;1.30;99.90
5276;DHT22;2661;50.786;12.728;2024-03-08T00:32:59;1.30;99.90
5276;DHT22;2661;50.786;12.728;2024-03-08T00:35:26;1.30;99.90
5276;DHT22;2661;50.786;12.728;2024-03-08T00:37:53;1.30;99.90
5276;DHT22;2661;50.786;12.728;2024-03-08T00:40:22;1.30;99.90
5276;DHT22;2661;50.786;12.728;2024-03-08T00:42:49;1.30;99.90
5276;DHT22;2661;50.786;12.728;2024-03-08T00:45:16;1.20;99.90
5276;DHT22;2661;50.786;12.728;2024-03-08T00:47:42;1.30;99.90
5276;DHT22;2661;50.786;12.728;2024-03-08T00:50:11;1.30;99.90
5276;DHT22;2661;50.786;12.728;2024-03-08T00:52:37;1.30;99.90
5276;DHT22;2661;50.786;12.728;2024-03-08T00:55:04;1.30;99.90
5276;DHT22;2661;50.786;12.728;2024-03-08T00:57:31;1.20;99.90
5276;DHT22;2661;50.786;12.728;2024-03-08T00:59:57;1.20;99.90
5276;DHT22;2661;50.786;12.728;2024-03-08T01:02:24;1.20;99.90
5276;DHT22;2661;50.786;12.728;2024-03-08T01:04:51;1.20;99.90
5276;DHT22;2661;50.786;12.728;2024-03-08T01:07:18;1.10;99.90
5276;DHT22;2661;50.786;12.728;2024-03-08T01:09:44;1.20;99.90
5276;DHT22;2661;50.786;12.728;2024-03-08T01:12:11;1.10;99.90
5276;DHT22;2661;50.786;12.728;2024-03-08T01:14:38;1.10;99.90
5276;DHT22;2661;50.786;12.728;2024-03-08T01:17:04;1.10;99.90
5276;DHT22;2661;50.786;12.728;2024-03-08T01:19:31;1.10;99.90
5276;DHT22;2661;50.786;12.728;2024-03-08T01:21:59;1.20;99.90
5276;DHT22;2661;50.786;12.728;2024-03-08T01:24:26;1.20;99.90
5276;DHT22;2661;50.786;12.728;2024-03-08T01:26:52;1.20;99.90
5276;DHT22;2661;50.786;12.728;2024-03-08T01:29:19;1.20;99.90
5276;DHT22;2661;50.786;12.728;2024-03-08T01:31:46;1.20;99.90
5276;DHT22;2661;50.786;12.728;2024-03-08T01:34:12;1.20;99.90
5276;DHT22;2661;50.786;12.728;2024-03-08T01:36:39;1.20;99.90
5276;DHT22;2661;50.786;12.728;2024-03-08T01:39:06;1.20;99.90
5276;DHT22;2661;50.786;12.728;2024-03-08T01:41:35;1.20;99.90
5276;DHT22;2661;50.786;12.728;2024-03-08T01:44:02;1.20;99.90
5276;DHT22;2661;50.786;12.728;2024-03-08T01:46:29;1.10;99.90
5276;DHT22;2661;50.786;12.728;2024-03-08T01:48:57;1.10;99.90
5276;DHT22;2661;50.786;12.728;2024-03-08T01:51:23;1.10;99.90
5276;DHT22;2661;50.786;12.728;2024-03-08T01:53:50;1.10;99.90
5276;DHT22;2661;50.786;12.728;2024-03-08T01:56:17;0.90;99.90
5276;DHT22;2661;50.786;12.728;2024-03-08T01:58:44;1.10;99.90
5276;DHT22;2661;50.786;12.728;2024-03-08T02:01:11;1.10;99.90
5276;DHT22;2661;50.786;12.728;2024-03-08T02:03:39;1.10;99.90
5276;DHT22;2661;50.786;12.728;2024-03-08T02:06:05;1.10;99.90
5276;DHT22;2661;50.786;12.728;2024-03-08T02:08:36;1.00;99.90
5276;DHT22;2661;50.786;12.728;2024-03-08T02:11:03;1.00;99.90
5276;DHT22;2661;50.786;12.728;2024-03-08T02:13:30;1.10;99.90
5276;DHT22;2661;50.786;12.728;2024-03-08T02:15:57;1.10;99.90
5276;DHT22;2661;50.786;12.728;2024-03-08T02:18:27;1.10;99.90
5276;DHT22;2661;50.786;12.728;2024-03-08T02:20:55;1.00;99.90
5276;DHT22;2661;50.786;12.728;2024-03-08T02:23:23;1.00;99.90
5276;DHT22;2661;50.786;12.728;2024-03-08T02:25:51;0.90;99.90
5276;DHT22;2661;50.786;12.728;2024-03-08T02:28:18;0.90;99.90
5276;DHT22;2661;50.786;12.728;2024-03-08T02:30:48;0.90;99.90
5276;DHT22;2661;50.786;12.728;2024-03-08T02:33:15;1.00;99.90
5276;DHT22;2661;50.786;12.728;2024-03-08T02:35:46;0.90;99.90
5276;DHT22;2661;50.786;12.728;2024-03-08T02:38:14;0.90;99.90
5276;DHT22;2661;50.786;12.728;2024-03-08T02:40:44;0.90;99.90
5276;DHT22;2661;50.786;12.728;2024-03-08T02:43:11;0.90;99.90
5276;DHT22;2661;50.786;12.728;2024-03-08T02:45:37;0.90;99.90
5276;DHT22;2661;50.786;12.728;2024-03-08T02:48:05;0.90;99.90
5276;DHT22;2661;50.786;12.728;2024-03-08T02:50:33;0.90;99.90
5276;DHT22;2661;50.786;12.728;2024-03-08T02:53:01;0.90;99.90
5276;DHT22;2661;50.786;12.728;2024-03-08T02:55:27;0.90;99.90
5276;DHT22;2661;50.786;12.728;2024-03-08T02:57:54;0.90;99.90
5276;DHT22;2661;50.786;12.728;2024-03-08T03:00:21;1.00;99.90
5276;DHT22;2661;50.786;12.728;2024-03-08T03:02:49;1.00;99.90
5276;DHT22;2661;50.786;12.728;2024-03-08T03:05:20;1.00;99.90
5276;DHT22;2661;50.786;12.728;2024-03-08T03:07:47;1.00;99.90
5276;DHT22;2661;50.786;12.728;2024-03-08T03:10:17;1.00;99.90
5276;DHT22;2661;50.786;12.728;2024-03-08T03:12:44;1.00;99.90
5276;DHT22;2661;50.786;12.728;2024-03-08T03:15:12;1.00;99.90
5276;DHT22;2661;50.786;12.728;2024-03-08T03:17:40;1.00;99.90
5276;DHT22;2661;50.786;12.728;2024-03-08T03:20:08;1.10;99.90
5276;DHT22;2661;50.786;12.728;2024-03-08T03:22:40;1.10;99.90
5276;DHT22;2661;50.786;12.728;2024-03-08T03:25:07;1.00;99.90
5276;DHT22;2661;50.786;12.728;2024-03-08T03:27:34;1.00;99.90
5276;DHT22;2661;50.786;12.728;2024-03-08T03:30:02;1.00;99.90
5276;DHT22;2661;50.786;12.728;2024-03-08T03:32:47;0.90;99.90
5276;DHT22;2661;50.786;12.728;2024-03-08T03:35:14;0.90;99.90
5276;DHT22;2661;50.786;12.728;2024-03-08T03:37:41;0.90;99.90
5276;DHT22;2661;50.786;12.728;2024-03-08T03:40:12;1.00;99.90
5276;DHT22;2661;50.786;12.728;2024-03-08T03:42:39;1.00;99.90
5276;DHT22;2661;50.786;12.728;2024-03-08T03:45:06;1.00;99.90
5276;DHT22;2661;50.786;12.728;2024-03-08T03:47:33;0.90;99.90
5276;DHT22;2661;50.786;12.728;2024-03-08T03:49:59;1.00;99.90
5276;DHT22;2661;50.786;12.728;2024-03-08T03:52:28;1.00;99.90
5276;DHT22;2661;50.786;12.728;2024-03-08T03:54:55;1.00;99.90
5276;DHT22;2661;50.786;12.728;2024-03-08T03:57:21;1.00;99.90
5276;DHT22;2661;50.786;12.728;2024-03-08T03:59:49;1.10;99.90
5276;DHT22;2661;50.786;12.728;2024-03-08T04:02:17;1.00;99.90
5276;DHT22;2661;50.786;12.728;2024-03-08T04:04:44;1.00;99.90
5276;DHT22;2661;50.786;12.728;2024-03-08T04:07:12;0.90;99.90
5276;DHT22;2661;50.786;12.728;2024-03-08T04:09:38;1.00;99.90
5276;DHT22;2661;50.786;12.728;2024-03-08T04:12:05;1.00;99.90
5276;DHT22;2661;50.786;12.728;2024-03-08T04:14:32;1.00;99.90
5276;DHT22;2661;50.786;12.728;2024-03-08T04:16:59;1.00;99.90
5276;DHT22;2661;50.786;12.728;2024-03-08T04:19:26;1.00;99.90
5276;DHT22;2661;50.786;12.728;2024-03-08T04:21:53;1.00;99.90
5276;DHT22;2661;50.786;12.728;2024-03-08T04:24:19;1.00;99.90
5276;DHT22;2661;50.786;12.728;2024-03-08T04:26:46;1.00;99.90
5276;DHT22;2661;50.786;12.728;2024-03-08T04:29:14;1.00;99.90
5276;DHT22;2661;50.786;12.728;2024-03-08T04:31:41;1.00;99.90
5276;DHT22;2661;50.786;12.728;2024-03-08T04:34:07;0.90;99.90
5276;DHT22;2661;50.786;12.728;2024-03-08T04:36:34;0.90;99.90
5276;DHT22;2661;50.786;12.728;2024-03-08T04:39:01;0.90;99.90
5276;DHT22;2661;50.786;12.728;2024-03-08T04:41:28;0.80;99.90
5276;DHT22;2661;50.786;12.728;2024-03-08T04:43:57;0.80;99.90
5276;DHT22;2661;50.786;12.728;2024-03-08T04:46:24;0.80;99.90
5276;DHT22;2661;50.786;12.728;2024-03-08T04:48:50;0.80;99.90
5276;DHT22;2661;50.786;12.728;2024-03-08T04:51:17;0.80;99.90
5276;DHT22;2661;50.786;12.728;2024-03-08T04:53:46;0.90;99.90
5276;DHT22;2661;50.786;12.728;2024-03-08T04:56:12;0.80;99.90
5276;DHT22;2661;50.786;12.728;2024-03-08T04:58:39;0.80;99.90
5276;DHT22;2661;50.786;12.728;2024-03-08T05:01:06;0.80;99.90
5276;DHT22;2661;50.786;12.728;2024-03-08T05:03:32;0.80;99.90
5276;DHT22;2661;50.786;12.728;2024-03-08T05:05:59;0.70;99.90
5276;DHT22;2661;50.786;12.728;2024-03-08T05:08:26;0.70;99.90
5276;DHT22;2661;50.786;12.728;2024-03-08T05:10:52;0.70;99.90
5276;DHT22;2661;50.786;12.728;2024-03-08T05:13:19;0.70;99.90
5276;DHT22;2661;50.786;12.728;2024-03-08T05:15:49;0.70;99.90
5276;DHT22;2661;50.786;12.728;2024-03-08T05:18:16;0.70;99.90
5276;DHT22;2661;50.786;12.728;2024-03-08T05:20:43;0.70;99.90
5276;DHT22;2661;50.786;12.728;2024-03-08T05:23:10;0.70;99.90
5276;DHT22;2661;50.786;12.728;2024-03-08T05:25:36;0.80;99.90
5276;DHT22;2661;50.786;12.728;2024-03-08T05:28:03;0.80;99.90
5276;DHT22;2661;50.786;12.728;2024-03-08T05:30:30;0.80;99.90
5276;DHT22;2661;50.786;12.728;2024-03-08T05:32:58;0.80;99.90
5276;DHT22;2661;50.786;12.728;2024-03-08T05:35:25;0.80;99.90
5276;DHT22;2661;50.786;12.728;2024-03-08T05:37:51;0.80;99.90
5276;DHT22;2661;50.786;12.728;2024-03-08T05:40:18;0.80;99.90
5276;DHT22;2661;50.786;12.728;2024-03-08T05:42:48;0.80;99.90
5276;DHT22;2661;50.786;12.728;2024-03-08T05:45:15;0.80;99.90
5276;DHT22;2661;50.786;12.728;2024-03-08T05:47:42;0.80;99.90
5276;DHT22;2661;50.786;12.728;2024-03-08T05:50:09;0.80;99.90
5276;DHT22;2661;50.786;12.728;2024-03-08T05:52:37;0.80;99.90
5276;DHT22;2661;50.786;12.728;2024-03-08T05:55:06;0.70;99.90
5276;DHT22;2661;50.786;12.728;2024-03-08T05:57:34;0.70;99.90
5276;DHT22;2661;50.786;12.728;2024-03-08T06:00:04;0.70;99.90
5276;DHT22;2661;50.786;12.728;2024-03-08T06:02:31;0.70;99.90
5276;DHT22;2661;50.786;12.728;2024-03-08T06:04:57;0.70;99.90
5276;DHT22;2661;50.786;12.728;2024-03-08T06:07:24;0.70;99.90
5276;DHT22;2661;50.786;12.728;2024-03-08T06:09:51;0.70;99.90
5276;DHT22;2661;50.786;12.728;2024-03-08T06:12:18;0.70;99.90
5276;DHT22;2661;50.786;12.728;2024-03-08T06:14:45;0.80;99.90
5276;DHT22;2661;50.786;12.728;2024-03-08T06:17:12;0.80;99.90
5276;DHT22;2661;50.786;12.728;2024-03-08T06:19:39;0.80;99.90
5276;DHT22;2661;50.786;12.728;2024-03-08T06:22:05;0.90;99.90
5276;DHT22;2661;50.786;12.728;2024-03-08T06:24:32;0.90;99.90
5276;DHT22;2661;50.786;12.728;2024-03-08T06:26:59;0.90;99.90
5276;DHT22;2661;50.786;12.728;2024-03-08T06:29:26;1.00;99.90
5276;DHT22;2661;50.786;12.728;2024-03-08T06:31:52;1.10;99.90
5276;DHT22;2661;50.786;12.728;2024-03-08T06:34:22;1.00;99.90
5276;DHT22;2661;50.786;12.728;2024-03-08T06:36:49;1.10;99.90
5276;DHT22;2661;50.786;12.728;2024-03-08T06:39:15;1.20;99.90
5276;DHT22;2661;50.786;12.728;2024-03-08T06:41:43;1.30;99.90
5276;DHT22;2661;50.786;12.728;2024-03-08T06:44:11;1.30;99.90
5276;DHT22;2661;50.786;12.728;2024-03-08T06:46:38;1.30;99.90
5276;DHT22;2661;50.786;12.728;2024-03-08T06:49:04;1.40;99.90
5276;DHT22;2661;50.786;12.728;2024-03-08T06:51:31;1.40;99.90
5276;DHT22;2661;50.786;12.728;2024-03-08T06:53:58;1.50;99.90
5276;DHT22;2661;50.786;12.728;2024-03-08T06:56:25;1.50;99.90
5276;DHT22;2661;50.786;12.728;2024-03-08T06:58:52;1.50;99.90
5276;DHT22;2661;50.786;12.728;2024-03-08T07:01:18;1.60;99.90
5276;DHT22;2661;50.786;12.728;2024-03-08T07:03:45;1.60;99.90
5276;DHT22;2661;50.786;12.728;2024-03-08T07:06:12;1.70;99.90
5276;DHT22;2661;50.786;12.728;2024-03-08T07:08:39;1.80;99.90
5276;DHT22;2661;50.786;12.728;2024-03-08T07:11:05;1.90;99.90
5276;DHT22;2661;50.786;12.728;2024-03-08T07:13:32;2.00;99.90
5276;DHT22;2661;50.786;12.728;2024-03-08T07:15:59;2.10;99.90
5276;DHT22;2661;50.786;12.728;2024-03-08T07:18:27;2.20;99.90
5276;DHT22;2661;50.786;12.728;2024-03-08T07:20:56;2.30;99.90
5276;DHT22;2661;50.786;12.728;2024-03-08T07:23:23;2.40;99.90
5276;DHT22;2661;50.786;12.728;2024-03-08T07:26:09;2.50;99.90
5276;DHT22;2661;50.786;12.728;2024-03-08T07:28:36;2.60;99.90
5276;DHT22;2661;50.786;12.728;2024-03-08T07:31:02;2.60;99.90
5276;DHT22;2661;50.786;12.728;2024-03-08T07:33:41;2.60;99.90
5276;DHT22;2661;50.786;12.728;2024-03-08T07:36:08;2.60;99.90
5276;DHT22;2661;50.786;12.728;2024-03-08T07:38:35;2.70;99.90
5276;DHT22;2661;50.786;12.728;2024-03-08T07:41:01;2.80;99.90
5276;DHT22;2661;50.786;12.728;2024-03-08T07:43:31;2.90;99.90
5276;DHT22;2661;50.786;12.728;2024-03-08T07:45:59;2.90;99.90
5276;DHT22;2661;50.786;12.728;2024-03-08T07:48:25;2.90;99.90
5276;DHT22;2661;50.786;12.728;2024-03-08T07:50:53;2.90;99.90
5276;DHT22;2661;50.786;12.728;2024-03-08T07:53:20;3.00;99.90
5276;DHT22;2661;50.786;12.728;2024-03-08T07:55:47;3.00;99.90
5276;DHT22;2661;50.786;12.728;2024-03-08T07:58:13;3.10;99.90
5276;DHT22;2661;50.786;12.728;2024-03-08T08:00:40;3.10;99.90
5276;DHT22;2661;50.786;12.728;2024-03-08T08:03:09;3.20;99.90
5276;DHT22;2661;50.786;12.728;2024-03-08T08:05:36;3.30;99.90
5276;DHT22;2661;50.786;12.728;2024-03-08T08:08:05;3.40;99.90
5276;DHT22;2661;50.786;12.728;2024-03-08T08:10:32;3.50;99.90
5276;DHT22;2661;50.786;12.728;2024-03-08T08:12:59;3.60;99.90
5276;DHT22;2661;50.786;12.728;2024-03-08T08:15:27;3.70;99.90
5276;DHT22;2661;50.786;12.728;2024-03-08T08:17:54;3.80;99.90
5276;DHT22;2661;50.786;12.728;2024-03-08T08:20:21;3.90;99.90
5276;DHT22;2661;50.786;12.728;2024-03-08T08:22:49;3.90;99.90
5276;DHT22;2661;50.786;12.728;2024-03-08T08:25:16;4.00;99.90
5276;DHT22;2661;50.786;12.728;2024-03-08T08:27:47;4.10;99.90
5276;DHT22;2661;50.786;12.728;2024-03-08T08:30:13;4.20;99.90
5276;DHT22;2661;50.786;12.728;2024-03-08T08:32:40;4.20;99.90
5276;DHT22;2661;50.786;12.728;2024-03-08T08:35:08;4.30;99.90
5276;DHT22;2661;50.786;12.728;2024-03-08T08:37:38;4.40;99.90
5276;DHT22;2661;50.786;12.728;2024-03-08T08:40:04;4.40;99.90
5276;DHT22;2661;50.786;12.728;2024-03-08T08:42:35;4.40;99.90
5276;DHT22;2661;50.786;12.728;2024-03-08T08:45:02;4.50;99.90
5276;DHT22;2661;50.786;12.728;2024-03-08T08:47:41;4.50;99.90
5276;DHT22;2661;50.786;12.728;2024-03-08T08:50:09;4.60;99.90
5276;DHT22;2661;50.786;12.728;2024-03-08T08:52:38;4.70;99.90
5276;DHT22;2661;50.786;12.728;2024-03-08T08:55:06;4.70;99.90
5276;DHT22;2661;50.786;12.728;2024-03-08T08:57:33;4.70;99.90
5276;DHT22;2661;50.786;12.728;2024-03-08T09:00:00;4.70;99.90
5276;DHT22;2661;50.786;12.728;2024-03-08T09:02:27;4.70;99.90
5276;DHT22;2661;50.786;12.728;2024-03-08T09:04:54;4.80;99.90
5276;DHT22;2661;50.786;12.728;2024-03-08T09:07:20;4.80;99.90
5276;DHT22;2661;50.786;12.728;2024-03-08T09:09:48;4.90;99.90
5276;DHT22;2661;50.786;12.728;2024-03-08T09:12:15;4.90;99.90
5276;DHT22;2661;50.786;12.728;2024-03-08T09:14:42;5.00;99.90
5276;DHT22;2661;50.786;12.728;2024-03-08T09:17:09;5.00;99.90
5276;DHT22;2661;50.786;12.728;2024-03-08T09:19:35;5.10;99.90
5276;DHT22;2661;50.786;12.728;2024-03-08T09:22:03;5.10;99.90
5276;DHT22;2661;50.786;12.728;2024-03-08T09:24:31;5.20;99.90
5276;DHT22;2661;50.786;12.728;2024-03-08T09:26:57;5.30;99.90
5276;DHT22;2661;50.786;12.728;2024-03-08T09:29:27;5.30;99.90
5276;DHT22;2661;50.786;12.728;2024-03-08T09:31:54;5.40;99.90
5276;DHT22;2661;50.786;12.728;2024-03-08T09:34:22;5.40;99.90
5276;DHT22;2661;50.786;12.728;2024-03-08T09:36:57;5.50;99.90
5276;DHT22;2661;50.786;12.728;2024-03-08T09:39:24;5.50;99.90
5276;DHT22;2661;50.786;12.728;2024-03-08T09:41:53;5.50;99.90
5276;DHT22;2661;50.786;12.728;2024-03-08T09:44:22;5.50;99.90
5276;DHT22;2661;50.786;12.728;2024-03-08T09:46:52;5.50;99.90
5276;DHT22;2661;50.786;12.728;2024-03-08T09:49:19;5.50;99.90
5276;DHT22;2661;50.786;12.728;2024-03-08T09:51:47;5.50;99.90
5276;DHT22;2661;50.786;12.728;2024-03-08T09:54:15;5.60;99.90
5276;DHT22;2661;50.786;12.728;2024-03-08T09:56:49;5.60;99.90
5276;DHT22;2661;50.786;12.728;2024-03-08T09:59:17;5.60;99.90
5276;DHT22;2661;50.786;12.728;2024-03-08T10:01:50;5.70;99.90
5276;DHT22;2661;50.786;12.728;2024-03-08T10:04:18;5.70;99.90
5276;DHT22;2661;50.786;12.728;2024-03-08T10:06:46;5.70;99.90
5276;DHT22;2661;50.786;12.728;2024-03-08T10:09:13;5.70;99.90
5276;DHT22;2661;50.786;12.728;2024-03-08T10:11:40;5.70;99.90
5276;DHT22;2661;50.786;12.728;2024-03-08T10:14:08;5.80;99.90
5276;DHT22;2661;50.786;12.728;2024-03-08T10:16:34;5.80;99.90
5276;DHT22;2661;50.786;12.728;2024-03-08T10:19:01;5.80;99.90
5276;DHT22;2661;50.786;12.728;2024-03-08T10:21:29;5.90;99.90
5276;DHT22;2661;50.786;12.728;2024-03-08T10:23:56;6.00;99.90
5276;DHT22;2661;50.786;12.728;2024-03-08T10:26:23;6.00;99.90
5276;DHT22;2661;50.786;12.728;2024-03-08T10:28:50;6.10;99.90
5276;DHT22;2661;50.786;12.728;2024-03-08T10:31:18;6.10;99.90
5276;DHT22;2661;50.786;12.728;2024-03-08T10:33:46;6.10;99.90
5276;DHT22;2661;50.786;12.728;2024-03-08T10:36:13;6.20;99.90
5276;DHT22;2661;50.786;12.728;2024-03-08T10:38:41;6.30;99.90
5276;DHT22;2661;50.786;12.728;2024-03-08T10:41:09;6.30;99.90
5276;DHT22;2661;50.786;12.728;2024-03-08T10:43:43;6.30;99.90
5276;DHT22;2661;50.786;12.728;2024-03-08T10:46:21;6.40;99.90
5276;DHT22;2661;50.786;12.728;2024-03-08T10:48:51;6.50;99.90
5276;DHT22;2661;50.786;12.728;2024-03-08T10:51:19;6.50;99.90
5276;DHT22;2661;50.786;12.728;2024-03-08T10:53:46;6.50;99.90
5276;DHT22;2661;50.786;12.728;2024-03-08T10:56:14;6.50;99.90
5276;DHT22;2661;50.786;12.728;2024-03-08T10:58:41;6.60;99.90
5276;DHT22;2661;50.786;12.728;2024-03-08T11:01:08;6.60;99.90
5276;DHT22;2661;50.786;12.728;2024-03-08T11:06:07;6.70;99.90
5276;DHT22;2661;50.786;12.728;2024-03-08T11:08:37;6.70;99.90
5276;DHT22;2661;50.786;12.728;2024-03-08T11:11:05;6.80;99.90
5276;DHT22;2661;50.786;12.728;2024-03-08T11:13:36;6.80;99.90
5276;DHT22;2661;50.786;12.728;2024-03-08T11:16:09;6.90;99.90
5276;DHT22;2661;50.786;12.728;2024-03-08T11:18:37;6.90;99.90
5276;DHT22;2661;50.786;12.728;2024-03-08T11:21:04;6.90;99.90
5276;DHT22;2661;50.786;12.728;2024-03-08T11:23:37;6.90;99.90
5276;DHT22;2661;50.786;12.728;2024-03-08T11:26:04;6.90;99.90
5276;DHT22;2661;50.786;12.728;2024-03-08T11:28:42;6.90;99.90
5276;DHT22;2661;50.786;12.728;2024-03-08T11:33:36;7.00;99.90
5276;DHT22;2661;50.786;12.728;2024-03-08T11:36:08;7.00;99.90
5276;DHT22;2661;50.786;12.728;2024-03-08T11:38:41;7.00;99.90
5276;DHT22;2661;50.786;12.728;2024-03-08T11:41:08;7.00;99.90
5276;DHT22;2661;50.786;12.728;2024-03-08T11:43:35;7.10;99.90
5276;DHT22;2661;50.786;12.728;2024-03-08T11:46:08;7.10;99.90
5276;DHT22;2661;50.786;12.728;2024-03-08T11:48:35;7.10;99.90
5276;DHT22;2661;50.786;12.728;2024-03-08T11:51:05;7.20;99.90
5276;DHT22;2661;50.786;12.728;2024-03-08T11:53:32;7.20;99.90
5276;DHT22;2661;50.786;12.728;2024-03-08T11:56:08;7.20;99.90
5276;DHT22;2661;50.786;12.728;2024-03-08T11:58:36;7.30;99.90
5276;DHT22;2661;50.786;12.728;2024-03-08T12:01:06;7.30;99.90
5276;DHT22;2661;50.786;12.728;2024-03-08T12:03:33;7.40;99.90
5276;DHT22;2661;50.786;12.728;2024-03-08T12:06:00;7.40;99.90
5276;DHT22;2661;50.786;12.728;2024-03-08T12:08:28;7.40;99.90
5276;DHT22;2661;50.786;12.728;2024-03-08T12:10:54;7.40;99.90
5276;DHT22;2661;50.786;12.728;2024-03-08T12:13:29;7.40;99.90
5276;DHT22;2661;50.786;12.728;2024-03-08T12:16:03;7.50;99.90
5276;DHT22;2661;50.786;12.728;2024-03-08T12:18:33;7.50;99.90
5276;DHT22;2661;50.786;12.728;2024-03-08T12:21:12;7.50;99.90
5276;DHT22;2661;50.786;12.728;2024-03-08T12:23:46;7.50;99.90
5276;DHT22;2661;50.786;12.728;2024-03-08T12:26:24;7.70;99.90
5276;DHT22;2661;50.786;12.728;2024-03-08T12:28:50;7.70;99.90
5276;DHT22;2661;50.786;12.728;2024-03-08T12:31:17;7.80;99.90
5276;DHT22;2661;50.786;12.728;2024-03-08T12:33:50;7.80;99.90
5276;DHT22;2661;50.786;12.728;2024-03-08T12:36:22;7.80;99.90
5276;DHT22;2661;50.786;12.728;2024-03-08T12:38:49;7.90;99.90
5276;DHT22;2661;50.786;12.728;2024-03-08T12:41:16;7.90;99.90
5276;DHT22;2661;50.786;12.728;2024-03-08T12:43:46;7.90;99.90
5276;DHT22;2661;50.786;12.728;2024-03-08T12:46:15;7.90;99.90
5276;DHT22;2661;50.786;12.728;2024-03-08T12:48:42;7.90;99.90
5276;DHT22;2661;50.786;12.728;2024-03-08T12:51:14;7.90;99.90
5276;DHT22;2661;50.786;12.728;2024-03-08T12:53:42;7.90;99.90
5276;DHT22;2661;50.786;12.728;2024-03-08T12:56:19;7.90;99.90
5276;DHT22;2661;50.786;12.728;2024-03-08T12:58:47;7.90;99.90
5276;DHT22;2661;50.786;12.728;2024-03-08T13:01:13;7.90;99.90
5276;DHT22;2661;50.786;12.728;2024-03-08T13:03:41;7.90;99.90
5276;DHT22;2661;50.786;12.728;2024-03-08T13:06:10;8.00;99.90
5276;DHT22;2661;50.786;12.728;2024-03-08T13:08:37;8.00;99.90
5276;DHT22;2661;50.786;12.728;2024-03-08T13:11:06;8.00;99.90
5276;DHT22;2661;50.786;12.728;2024-03-08T13:13:34;8.00;99.90
5276;DHT22;2661;50.786;12.728;2024-03-08T13:16:03;8.10;99.90
5276;DHT22;2661;50.786;12.728;2024-03-08T13:18:30;8.00;99.90
5276;DHT22;2661;50.786;12.728;2024-03-08T13:20:57;8.10;99.90
5276;DHT22;2661;50.786;12.728;2024-03-08T13:23:24;8.10;99.90
5276;DHT22;2661;50.786;12.728;2024-03-08T13:25:50;8.10;99.90
5276;DHT22;2661;50.786;12.728;2024-03-08T13:28:17;8.10;99.90
5276;DHT22;2661;50.786;12.728;2024-03-08T13:30:49;8.00;99.90
5276;DHT22;2661;50.786;12.728;2024-03-08T13:33:19;8.00;99.90
5276;DHT22;2661;50.786;12.728;2024-03-08T13:35:46;8.00;99.90
5276;DHT22;2661;50.786;12.728;2024-03-08T13:38:17;8.00;99.90
5276;DHT22;2661;50.786;12.728;2024-03-08T13:40:46;8.00;99.90
5276;DHT22;2661;50.786;12.728;2024-03-08T13:43:16;8.00;99.90
5276;DHT22;2661;50.786;12.728;2024-03-08T13:45:42;8.10;99.90
5276;DHT22;2661;50.786;12.728;2024-03-08T13:48:10;8.10;99.90
5276;DHT22;2661;50.786;12.728;2024-03-08T13:50:39;8.10;99.90
5276;DHT22;2661;50.786;12.728;2024-03-08T13:53:06;8.10;99.90
5276;DHT22;2661;50.786;12.728;2024-03-08T13:55:33;8.20;99.90
5276;DHT22;2661;50.786;12.728;2024-03-08T13:58:00;8.20;99.90
5276;DHT22;2661;50.786;12.728;2024-03-08T14:00:27;8.20;99.90
5276;DHT22;2661;50.786;12.728;2024-03-08T14:02:54;8.10;99.90
5276;DHT22;2661;50.786;12.728;2024-03-08T14:05:21;8.20;99.90
5276;DHT22;2661;50.786;12.728;2024-03-08T14:07:48;8.20;99.90
5276;DHT22;2661;50.786;12.728;2024-03-08T14:10:16;8.20;99.90
5276;DHT22;2661;50.786;12.728;2024-03-08T14:12:46;8.20;99.90
5276;DHT22;2661;50.786;12.728;2024-03-08T14:15:16;8.20;99.90
5276;DHT22;2661;50.786;12.728;2024-03-08T14:17:43;8.20;99.90
5276;DHT22;2661;50.786;12.728;2024-03-08T14:20:13;8.20;99.90
5276;DHT22;2661;50.786;12.728;2024-03-08T14:22:40;8.10;99.90
5276;DHT22;2661;50.786;12.728;2024-03-08T14:25:06;8.10;99.90
5276;DHT22;2661;50.786;12.728;2024-03-08T14:27:46;8.10;99.90
5276;DHT22;2661;50.786;12.728;2024-03-08T14:30:13;8.10;99.90
5276;DHT22;2661;50.786;12.728;2024-03-08T14:32:40;8.10;99.90
5276;DHT22;2661;50.786;12.728;2024-03-08T14:35:08;8.10;99.90
5276;DHT22;2661;50.786;12.728;2024-03-08T14:37:35;8.10;99.90
5276;DHT22;2661;50.786;12.728;2024-03-08T14:40:01;8.10;99.90
5276;DHT22;2661;50.786;12.728;2024-03-08T14:42:31;8.10;99.90
5276;DHT22;2661;50.786;12.728;2024-03-08T14:44:58;8.10;99.90
5276;DHT22;2661;50.786;12.728;2024-03-08T14:47:25;8.00;99.90
5276;DHT22;2661;50.786;12.728;2024-03-08T14:49:52;7.90;99.90
5276;DHT22;2661;50.786;12.728;2024-03-08T14:52:19;7.80;99.90
5276;DHT22;2661;50.786;12.728;2024-03-08T14:54:55;7.90;99.90
5276;DHT22;2661;50.786;12.728;2024-03-08T14:57:22;7.80;99.90
5276;DHT22;2661;50.786;12.728;2024-03-08T14:59:49;7.80;99.90
5276;DHT22;2661;50.786;12.728;2024-03-08T15:02:16;7.80;99.90
5276;DHT22;2661;50.786;12.728;2024-03-08T15:04:48;7.80;99.90
5276;DHT22;2661;50.786;12.728;2024-03-08T15:07:24;7.80;99.90
5276;DHT22;2661;50.786;12.728;2024-03-08T15:09:52;7.80;99.90
5276;DHT22;2661;50.786;12.728;2024-03-08T15:12:19;7.80;99.90
5276;DHT22;2661;50.786;12.728;2024-03-08T15:14:46;7.70;99.90
5276;DHT22;2661;50.786;12.728;2024-03-08T15:17:13;7.70;99.90
5276;DHT22;2661;50.786;12.728;2024-03-08T15:19:48;7.60;99.90
5276;DHT22;2661;50.786;12.728;2024-03-08T15:22:14;7.60;99.90
5276;DHT22;2661;50.786;12.728;2024-03-08T15:24:44;7.60;99.90
5276;DHT22;2661;50.786;12.728;2024-03-08T15:27:11;7.60;99.90
5276;DHT22;2661;50.786;12.728;2024-03-08T15:29:38;7.50;99.90
5276;DHT22;2661;50.786;12.728;2024-03-08T15:32:04;7.50;99.90
5276;DHT22;2661;50.786;12.728;2024-03-08T15:34:33;7.50;99.90
5276;DHT22;2661;50.786;12.728;2024-03-08T15:37:04;7.50;99.90
5276;DHT22;2661;50.786;12.728;2024-03-08T15:39:31;7.50;99.90
5276;DHT22;2661;50.786;12.728;2024-03-08T15:42:00;7.50;99.90
5276;DHT22;2661;50.786;12.728;2024-03-08T15:44:27;7.40;99.90
5276;DHT22;2661;50.786;12.728;2024-03-08T15:46:54;7.40;99.90
5276;DHT22;2661;50.786;12.728;2024-03-08T15:49:21;7.40;99.90
5276;DHT22;2661;50.786;12.728;2024-03-08T15:51:48;7.30;99.90
5276;DHT22;2661;50.786;12.728;2024-03-08T15:54:15;7.40;99.90
5276;DHT22;2661;50.786;12.728;2024-03-08T15:56:42;7.30;99.90
5276;DHT22;2661;50.786;12.728;2024-03-08T15:59:08;7.30;99.90
5276;DHT22;2661;50.786;12.728;2024-03-08T16:01:36;7.30;99.90
5276;DHT22;2661;50.786;12.728;2024-03-08T16:04:03;7.20;99.90
5276;DHT22;2661;50.786;12.728;2024-03-08T16:06:30;7.20;99.90
5276;DHT22;2661;50.786;12.728;2024-03-08T16:08:57;7.30;99.90
5276;DHT22;2661;50.786;12.728;2024-03-08T16:11:25;7.20;99.90